This is the latest recevied weather packets stored in our database for station/object PA0HHN. If no packets are shown the sender has not sent any weather packets the latest 10 day(s).
| Time | Temp. | Humidity | Pressure | Rain* | Wind** | Luminosity | Snow |
|---|---|---|---|---|---|---|---|
| 1788021002 | 18.89° C | 85% | 1001.7 hPa | - | - | - | - |
| 1788020101 | 20° C | 83% | 1001.9 hPa | - | - | - | - |
| 1788019201 | 21.11° C | 76% | 1001.8 hPa | - | - | - | - |
| 1788018303 | 22.22° C | 71% | 1001.8 hPa | - | - | - | - |
| 1788017400 | 22.22° C | 70% | 1001.9 hPa | - | - | - | - |
| 1788016510 | 22.22° C | 71% | 1001.8 hPa | - | - | - | - |
| 1788015601 | 22.78° C | 68% | 1002 hPa | - | - | - | - |
| 1788014700 | 22.78° C | 66% | 1001.9 hPa | - | - | - | - |
| 1788013802 | 22.78° C | 66% | 1002.2 hPa | - | - | - | - |
| 1788012902 | 22.78° C | 65% | 1002 hPa | - | - | - | - |
| 1788012002 | 22.78° C | 65% | 1002.2 hPa | - | - | - | - |
| 1788011102 | 22.78° C | 64% | 1002.3 hPa | - | - | - | - |
| 1788010214 | 22.78° C | 64% | 1002.1 hPa | - | - | - | - |
| 1788009302 | 23.89° C | 61% | 1002.3 hPa | - | - | - | - |
| 1788008402 | 23.89° C | 61% | 1002.4 hPa | - | - | - | - |
| 1788007501 | 22.22° C | 65% | 1002.2 hPa | - | - | - | - |
| 1788006602 | 22.78° C | 62% | 1002.4 hPa | - | - | - | - |
| 1788005702 | 22.78° C | 64% | 1002.4 hPa | - | - | - | - |
| 1788004802 | 22.78° C | 63% | 1002.3 hPa | - | - | - | - |
| 1788003902 | 22.78° C | 66% | 1002.3 hPa | - | - | - | - |
| 1788003000 | 22.78° C | 68% | 1002.4 hPa | - | - | - | - |
| 1788002102 | 22.78° C | 70% | 1002.4 hPa | - | - | - | - |
| 1788001202 | 22.22° C | 77% | 1002.7 hPa | - | - | - | - |
| 1788000302 | 21.11° C | 80% | 1002.8 hPa | - | - | - | - |
| 1787999400 | 20° C | 82% | 1002.9 hPa | - | - | - | - |
* Rain since midnight (hover to see other rain measurements)
** Current wind speed in m/s (hover to see current wind gust speed)